グラン・カナリア島 の空港の天気 - METARとTAF

グラン・カナリア空港 ( GCLP / LPA ) - グラン・カナリア島
飛行場実況気象(Metar)
観測時間02/01 15:30 WET (02/01 15:30 UTC)
風向・風速北北東 9m/s
視程10km以上
天気現象
少しの雲 雲底高度 1070m
全天の4割程度の雲 雲底高度 1980m
気温19℃
湿度52%
気圧1020hPa
METARGCLP 011530Z 03017KT 9999 FEW035 SCT065 19/09 Q1020 NOSIG
過去の天気等 Google飛行場航空写真 Wunderground天気予報

過去48時間のMETAR

飛行場予報(TAF)
発表時間: 2/01 14:00 WET (2/01 14:00 UTC)
予報対象時間: 1日15時 WET ~ 2日15時 WET
風向・風速北北東 7m/s
視程10km以上
少しの雲 雲底高度 1070m
1日18時 WET ~ 1日21時 WET に徐々に
風向・風速北北西 5m/s
2日0時 WET ~ 2日5時 WET に一時的に
風向・風速北北東 5m/s
2日7時 WET ~ 2日10時 WET に徐々に
風向・風速南東 5m/s
2日6時 WET ~ 2日15時 WET に 確率 30% で一時的に
視程4500m
天気現象煙霧
TAF GCLP 011400Z 0115/0215 03013KT 9999 FEW035 TX20/0214Z TN14/0206Z
BECMG 0118/0121 33009KT
TEMPO 0124/0205 03010KT
BECMG 0207/0210 13010KT
PROB30 TEMPO 0206/0215 4500 HZ